createdAt,value
2022-10-25T00:02:15.701Z,13.26
2022-10-25T00:04:41.219Z,13.23
2022-10-25T00:07:10.798Z,13.25
2022-10-25T00:09:40.835Z,13.22
2022-10-25T00:12:10.717Z,13.23
2022-10-25T00:14:40.745Z,13.26
2022-10-25T00:17:10.870Z,13.28
2022-10-25T00:19:40.820Z,13.26
2022-10-25T00:22:10.670Z,13.28
2022-10-25T00:24:40.833Z,13.33
2022-10-25T00:27:10.844Z,13.34
2022-10-25T00:29:40.750Z,13.31
2022-10-25T00:32:10.965Z,13.32
2022-10-25T00:34:40.826Z,13.35
2022-10-25T00:37:10.711Z,13.34
2022-10-25T00:39:40.965Z,13.37
2022-10-25T00:42:14.019Z,13.35
2022-10-25T00:47:17.181Z,13.40
2022-10-25T00:52:11.537Z,13.41
2022-10-25T00:54:44.214Z,13.40
2022-10-25T00:57:14.858Z,13.41
2022-10-25T00:59:42.462Z,13.42
2022-10-25T01:12:10.765Z,13.39
2022-10-25T01:14:47.560Z,13.41
2022-10-25T01:17:15.021Z,13.44
2022-10-25T01:20:00.159Z,13.48
2022-10-25T01:22:16.960Z,13.50
2022-10-25T01:25:00.614Z,13.54
2022-10-25T01:27:28.686Z,13.56
2022-10-25T01:29:59.228Z,13.55
2022-10-25T01:32:18.706Z,13.56
2022-10-25T01:34:48.803Z,13.57
2022-10-25T01:37:17.087Z,13.56
2022-10-25T01:39:48.237Z,13.59
2022-10-25T01:42:19.388Z,13.61
2022-10-25T01:44:55.211Z,13.59
2022-10-25T01:52:10.881Z,13.63
2022-10-25T01:54:40.768Z,13.62
2022-10-25T01:57:28.740Z,13.60
2022-10-25T02:02:21.566Z,13.61
2022-10-25T02:04:49.679Z,13.68
2022-10-25T02:07:17.219Z,13.67
2022-10-25T02:09:50.333Z,13.62
2022-10-25T02:12:17.700Z,13.66
2022-10-25T02:17:15.499Z,13.71
2022-10-25T02:19:44.750Z,13.75
2022-10-25T02:22:12.417Z,13.77
2022-10-25T02:24:43.898Z,13.80
2022-10-25T02:27:12.958Z,13.81
2022-10-25T02:29:43.368Z,13.80
2022-10-25T02:32:10.881Z,13.81
2022-10-25T02:34:41.116Z,13.79
2022-10-25T02:37:10.696Z,13.76
2022-10-25T02:39:41.214Z,13.73
2022-10-25T02:42:11.094Z,13.71
2022-10-25T02:44:40.702Z,13.74
2022-10-25T02:47:11.192Z,13.73
2022-10-25T02:49:40.822Z,13.69
2022-10-25T02:52:10.734Z,13.68
2022-10-25T02:54:40.913Z,13.66
2022-10-25T02:59:41.643Z,13.63
2022-10-25T03:02:10.840Z,13.61
2022-10-25T03:07:10.826Z,13.59
2022-10-25T03:09:40.711Z,13.56
2022-10-25T03:12:10.745Z,13.57
2022-10-25T03:14:40.735Z,13.55
2022-10-25T03:17:10.780Z,13.54
2022-10-25T03:19:40.923Z,13.47
2022-10-25T03:22:10.700Z,13.48
2022-10-25T03:24:41.005Z,13.49
2022-10-25T03:27:10.852Z,13.50
2022-10-25T03:29:40.735Z,13.49
2022-10-25T03:32:10.988Z,13.51
2022-10-25T03:34:40.718Z,13.50
2022-10-25T03:37:10.754Z,13.49
2022-10-25T03:39:40.761Z,13.48
2022-10-25T03:42:10.734Z,13.47
2022-10-25T03:49:41.146Z,13.45
2022-10-25T03:54:41.489Z,13.39
2022-10-25T03:57:10.921Z,13.38
2022-10-25T03:59:40.830Z,13.34
2022-10-25T04:02:11.762Z,13.35
2022-10-25T04:04:40.985Z,13.33
2022-10-25T04:07:10.733Z,13.29
2022-10-25T04:09:40.954Z,13.26
2022-10-25T04:14:41.270Z,13.27
2022-10-25T04:17:10.794Z,13.19
2022-10-25T04:19:40.781Z,13.15
2022-10-25T04:22:11.593Z,13.12
2022-10-25T04:24:40.738Z,13.15
2022-10-25T04:27:11.006Z,13.16
2022-10-25T04:29:40.890Z,13.14
2022-10-25T04:32:10.994Z,13.10
2022-10-25T04:34:40.773Z,13.09
2022-10-25T04:37:10.791Z,13.08
2022-10-25T04:39:41.122Z,13.06
2022-10-25T04:42:10.875Z,13.04
2022-10-25T04:44:40.791Z,13.03
2022-10-25T04:47:10.907Z,13.04
2022-10-25T04:49:40.794Z,13.01
2022-10-25T04:52:11.049Z,13.02
2022-10-25T04:57:10.761Z,13.01
2022-10-25T04:59:40.892Z,13.00
2022-10-25T05:02:11.451Z,13.01
2022-10-25T05:04:41.584Z,13.02
2022-10-25T05:07:10.789Z,13.04
2022-10-25T05:12:11.002Z,13.08
2022-10-25T05:14:40.992Z,13.12
2022-10-25T05:17:10.985Z,13.13
2022-10-25T05:19:40.931Z,13.08
2022-10-25T05:22:10.795Z,13.07
2022-10-25T05:24:40.777Z,13.06
2022-10-25T05:27:11.070Z,13.05
2022-10-25T05:29:41.865Z,13.00
2022-10-25T05:32:10.783Z,13.01
2022-10-25T05:34:40.818Z,13.02
2022-10-25T05:39:40.904Z,13.01
2022-10-25T05:42:10.842Z,13.00
2022-10-25T05:44:40.775Z,12.97
2022-10-25T05:47:11.762Z,12.94
2022-10-25T05:49:41.489Z,12.95
2022-10-25T05:52:11.386Z,12.93
2022-10-25T05:57:11.008Z,12.95
2022-10-25T05:59:40.816Z,12.89
2022-10-25T06:02:11.091Z,12.90
2022-10-25T06:04:40.882Z,12.91
2022-10-25T06:07:10.781Z,12.88
2022-10-25T06:09:41.071Z,12.84
2022-10-25T06:14:40.927Z,12.81
2022-10-25T06:17:11.854Z,12.78
2022-10-25T06:19:40.862Z,12.76
2022-10-25T06:22:10.870Z,12.74
2022-10-25T06:24:40.889Z,12.75
2022-10-25T06:27:12.354Z,12.77
2022-10-25T06:29:40.793Z,12.74
2022-10-25T06:32:10.931Z,12.72
2022-10-25T06:34:40.983Z,12.74
2022-10-25T06:37:10.793Z,12.71
2022-10-25T06:39:41.078Z,12.69
2022-10-25T06:44:40.900Z,12.67
2022-10-25T06:49:41.167Z,12.66
2022-10-25T06:52:10.965Z,12.65
2022-10-25T06:57:10.883Z,12.64
2022-10-25T06:59:40.819Z,12.62
2022-10-25T07:02:11.343Z,12.66
2022-10-25T07:04:40.839Z,12.67
2022-10-25T07:07:13.976Z,12.70
2022-10-25T07:09:40.989Z,12.73
2022-10-25T07:12:12.579Z,12.74
2022-10-25T07:14:41.251Z,12.79
2022-10-25T07:17:10.833Z,12.82
2022-10-25T07:19:40.803Z,12.83
2022-10-25T07:22:10.875Z,12.85
2022-10-25T07:24:41.617Z,12.86
2022-10-25T07:27:10.819Z,12.92
2022-10-25T07:29:41.286Z,12.93
2022-10-25T07:32:11.124Z,12.96
2022-10-25T07:34:40.838Z,13.00
2022-10-25T07:37:11.019Z,13.06
2022-10-25T07:39:41.209Z,13.07
2022-10-25T07:42:10.815Z,13.15
2022-10-25T07:44:41.056Z,13.30
2022-10-25T07:47:10.864Z,13.47
2022-10-25T07:49:41.016Z,13.75
2022-10-25T07:52:10.940Z,14.06
2022-10-25T07:54:40.845Z,14.36
2022-10-25T07:57:10.846Z,14.65
2022-10-25T07:59:40.897Z,14.87
2022-10-25T08:02:11.620Z,15.14
2022-10-25T08:04:41.189Z,15.39
2022-10-25T08:07:10.875Z,15.65
2022-10-25T08:09:40.836Z,15.91
2022-10-25T08:12:10.950Z,16.08
2022-10-25T08:14:42.432Z,16.23
2022-10-25T08:19:41.000Z,16.09
2022-10-25T08:22:11.052Z,15.92
2022-10-25T08:24:40.848Z,15.83
2022-10-25T08:27:11.322Z,15.73
2022-10-25T08:29:42.086Z,15.61
2022-10-25T08:32:10.868Z,15.49
2022-10-25T08:34:41.110Z,15.40
2022-10-25T08:37:11.953Z,15.27
2022-10-25T08:39:41.049Z,15.18
2022-10-25T08:42:21.116Z,15.17
2022-10-25T08:44:45.855Z,15.16
2022-10-25T08:47:16.976Z,15.11
2022-10-25T08:49:50.057Z,15.10
2022-10-25T08:52:17.726Z,15.05
2022-10-25T08:54:44.136Z,14.99
2022-10-25T08:57:17.523Z,14.95
2022-10-25T08:59:43.919Z,14.97
2022-10-25T09:02:17.771Z,14.93
2022-10-25T09:04:41.193Z,14.94
2022-10-25T09:07:26.955Z,14.98
2022-10-25T09:12:20.301Z,15.02
2022-10-25T09:14:47.103Z,15.00
2022-10-25T09:17:17.075Z,14.96
2022-10-25T09:19:53.306Z,14.98
2022-10-25T09:22:19.113Z,15.03
2022-10-25T09:24:47.754Z,15.07
2022-10-25T09:27:15.257Z,15.06
2022-10-25T09:29:46.469Z,15.03
2022-10-25T09:32:18.018Z,15.06
2022-10-25T09:34:41.981Z,15.11
2022-10-25T09:37:16.948Z,15.16
2022-10-25T09:39:45.202Z,15.13
2022-10-25T09:42:19.136Z,15.14
2022-10-25T09:44:44.386Z,15.13
2022-10-25T09:47:22.915Z,15.17
2022-10-25T09:49:47.462Z,15.21
2022-10-25T09:52:18.827Z,15.27
2022-10-25T09:54:48.758Z,15.31
2022-10-25T09:57:11.009Z,15.29
2022-10-25T09:59:41.825Z,15.32
2022-10-25T10:02:17.333Z,15.38
2022-10-25T10:07:18.621Z,15.41
2022-10-25T10:09:45.753Z,15.47
2022-10-25T10:12:18.052Z,15.56
2022-10-25T10:14:49.255Z,15.65
2022-10-25T10:17:14.224Z,15.72
2022-10-25T10:19:42.992Z,15.81
2022-10-25T10:22:13.990Z,15.90
2022-10-25T10:24:43.383Z,16.00
2022-10-25T10:27:22.863Z,16.07
2022-10-25T10:29:52.594Z,16.13
2022-10-25T10:32:23.247Z,16.18
2022-10-25T10:34:43.825Z,16.29
2022-10-25T10:37:15.327Z,16.35
2022-10-25T10:39:50.921Z,16.42
2022-10-25T10:42:15.344Z,16.45
2022-10-25T10:45:01.599Z,16.47
2022-10-25T10:47:20.039Z,16.52
2022-10-25T10:49:41.767Z,16.41
2022-10-25T10:52:26.107Z,16.44
2022-10-25T10:54:46.951Z,16.50
2022-10-25T10:57:23.867Z,16.52
2022-10-25T10:59:50.563Z,16.49
2022-10-25T11:02:22.779Z,16.57
2022-10-25T11:04:46.417Z,16.61
2022-10-25T11:07:13.327Z,16.75
2022-10-25T11:09:41.062Z,16.88
2022-10-25T11:12:13.731Z,16.98
2022-10-25T11:14:41.534Z,17.00
2022-10-25T11:19:56.087Z,17.02
2022-10-25T11:22:20.993Z,17.07
2022-10-25T11:24:51.493Z,17.10
2022-10-25T11:27:24.504Z,17.23
2022-10-25T11:29:55.539Z,17.38
2022-10-25T11:32:30.864Z,17.49
2022-10-25T11:34:50.379Z,17.72
2022-10-25T11:37:20.096Z,17.81
2022-10-25T11:39:50.554Z,17.83
2022-10-25T11:42:29.692Z,17.79
2022-10-25T11:45:00.895Z,17.88
2022-10-25T11:47:21.065Z,18.13
2022-10-25T11:49:56.875Z,18.28
2022-10-25T11:52:27.377Z,18.32
2022-10-25T11:54:48.651Z,18.40
2022-10-25T11:57:24.481Z,18.42
2022-10-25T11:59:56.484Z,18.36
2022-10-25T12:02:30.642Z,18.43
2022-10-25T12:04:56.032Z,18.45
2022-10-25T12:07:15.638Z,18.35
2022-10-25T12:09:50.216Z,18.25
2022-10-25T12:14:45.501Z,18.15
2022-10-25T12:17:20.537Z,18.36
2022-10-25T12:19:44.378Z,18.44
2022-10-25T12:22:16.432Z,18.46
2022-10-25T12:24:47.021Z,18.49
2022-10-25T12:27:14.904Z,18.47
2022-10-25T12:29:45.283Z,18.42
2022-10-25T12:32:17.830Z,18.37
2022-10-25T12:34:44.769Z,18.14
2022-10-25T12:37:17.605Z,17.99
2022-10-25T12:39:43.198Z,18.04
2022-10-25T12:42:16.477Z,18.01
2022-10-25T12:45:00.877Z,17.95
2022-10-25T12:47:24.340Z,17.90
2022-10-25T12:49:56.737Z,17.93
2022-10-25T12:52:24.840Z,18.05
2022-10-25T12:54:57.850Z,18.27
2022-10-25T12:57:20.710Z,18.60
2022-10-25T12:59:55.706Z,18.87
2022-10-25T13:02:29.923Z,19.06
2022-10-25T13:04:51.618Z,19.25
2022-10-25T13:07:13.728Z,19.47
2022-10-25T13:09:42.003Z,19.84
2022-10-25T13:12:20.692Z,20.17
2022-10-25T13:14:45.764Z,20.44
2022-10-25T13:17:30.748Z,20.77
2022-10-25T13:19:54.065Z,20.83
2022-10-25T13:22:31.517Z,20.87
2022-10-25T13:24:42.669Z,20.99
2022-10-25T13:27:19.117Z,21.19
2022-10-25T13:29:55.054Z,21.32
2022-10-25T13:32:16.791Z,21.49
2022-10-25T13:34:41.599Z,21.56
2022-10-25T13:37:30.804Z,21.72
2022-10-25T13:39:43.509Z,21.82
2022-10-25T13:42:23.999Z,21.74
2022-10-25T13:44:52.745Z,21.51
2022-10-25T13:47:30.792Z,21.21
2022-10-25T13:49:42.664Z,20.79
2022-10-25T13:52:22.530Z,20.58
2022-10-25T13:54:47.066Z,20.31
2022-10-25T13:57:30.986Z,19.96
2022-10-25T13:59:59.303Z,19.89
2022-10-25T14:02:16.578Z,19.74
2022-10-25T14:04:41.280Z,19.57
2022-10-25T14:07:30.789Z,19.56
2022-10-25T14:09:42.099Z,19.52
2022-10-25T14:12:16.774Z,19.33
2022-10-25T14:14:48.779Z,19.17
2022-10-25T14:17:17.994Z,19.05
2022-10-25T14:19:45.139Z,19.02
2022-10-25T14:22:14.911Z,18.98
2022-10-25T14:24:42.754Z,18.95
2022-10-25T14:27:29.430Z,18.91
2022-10-25T14:29:42.906Z,18.88
2022-10-25T14:32:12.919Z,18.82
2022-10-25T14:34:47.551Z,18.72
2022-10-25T14:37:13.788Z,18.62
2022-10-25T14:39:51.207Z,18.53
2022-10-25T14:42:15.646Z,18.46
2022-10-25T14:44:44.671Z,18.41
2022-10-25T14:47:26.977Z,18.33
2022-10-25T14:49:41.033Z,18.27
2022-10-25T14:52:11.043Z,18.13
2022-10-25T14:54:42.028Z,18.02
2022-10-25T14:57:11.376Z,17.91
2022-10-25T14:59:45.345Z,17.84
2022-10-25T15:02:17.137Z,17.79
2022-10-25T15:04:45.212Z,17.73
2022-10-25T15:07:20.203Z,17.65
2022-10-25T15:09:47.650Z,17.55
2022-10-25T15:12:17.054Z,17.49
2022-10-25T15:14:41.202Z,17.35
2022-10-25T15:17:17.402Z,17.28
2022-10-25T15:19:59.885Z,17.20
2022-10-25T15:22:14.535Z,17.12
2022-10-25T15:24:44.222Z,17.07
2022-10-25T15:27:25.481Z,17.01
2022-10-25T15:29:46.042Z,16.97
2022-10-25T15:32:14.093Z,16.90
2022-10-25T15:34:43.289Z,16.86
2022-10-25T15:37:13.268Z,16.85
2022-10-25T15:42:14.406Z,16.78
2022-10-25T15:44:41.551Z,16.74
2022-10-25T15:47:22.779Z,16.64
2022-10-25T15:49:41.068Z,16.60
2022-10-25T15:52:15.549Z,16.53
2022-10-25T15:54:42.926Z,16.48
2022-10-25T15:57:11.076Z,16.44
2022-10-25T15:59:41.331Z,16.38
2022-10-25T16:04:41.901Z,16.35
2022-10-25T16:07:11.975Z,16.31
2022-10-25T16:09:41.140Z,16.28
2022-10-25T16:12:18.857Z,16.24
2022-10-25T16:14:41.114Z,16.16
2022-10-25T16:17:12.922Z,16.13
2022-10-25T16:19:41.104Z,16.07
2022-10-25T16:22:11.106Z,16.02
2022-10-25T16:29:41.531Z,15.99
2022-10-25T16:32:11.132Z,16.00
2022-10-25T16:34:45.000Z,15.98
2022-10-25T16:37:11.814Z,15.96
2022-10-25T16:39:41.091Z,15.94
2022-10-25T16:42:26.435Z,15.90
2022-10-25T16:44:41.062Z,15.89
2022-10-25T16:47:11.320Z,15.86
2022-10-25T16:49:41.050Z,15.82
2022-10-25T16:52:11.053Z,15.79
2022-10-25T16:54:41.958Z,15.76
2022-10-25T16:57:11.147Z,15.71
2022-10-25T16:59:41.709Z,15.66
2022-10-25T17:02:16.570Z,15.60
2022-10-25T17:04:41.085Z,15.55
2022-10-25T17:07:11.468Z,15.49
2022-10-25T17:09:41.162Z,15.41
2022-10-25T17:12:11.792Z,15.36
2022-10-25T17:14:41.123Z,15.31
2022-10-25T17:17:11.157Z,15.23
2022-10-25T17:19:41.569Z,15.19
2022-10-25T17:22:11.106Z,15.13
2022-10-25T17:24:41.137Z,15.07
2022-10-25T17:27:11.196Z,15.02
2022-10-25T17:29:41.074Z,14.95
2022-10-25T17:32:11.289Z,14.91
2022-10-25T17:34:41.079Z,14.85
2022-10-25T17:37:11.084Z,14.80
2022-10-25T17:39:41.064Z,14.75
2022-10-25T17:42:11.207Z,14.67
2022-10-25T17:44:43.769Z,14.61
2022-10-25T17:47:11.904Z,14.59
2022-10-25T17:49:41.296Z,14.54
2022-10-25T17:52:11.213Z,14.51
2022-10-25T17:54:42.272Z,14.47
2022-10-25T17:57:11.439Z,14.44
2022-10-25T17:59:41.096Z,14.41
2022-10-25T18:02:11.521Z,14.37
2022-10-25T18:05:01.197Z,14.33
2022-10-25T18:09:41.403Z,14.27
2022-10-25T18:12:11.149Z,14.24
2022-10-25T18:14:41.293Z,14.22
2022-10-25T18:17:11.214Z,14.19
2022-10-25T18:19:41.080Z,14.16
2022-10-25T18:22:11.499Z,14.14
2022-10-25T18:24:41.224Z,14.10
2022-10-25T18:27:13.774Z,14.06
2022-10-25T18:29:42.402Z,14.01
2022-10-25T18:32:11.141Z,13.97
2022-10-25T18:34:41.289Z,13.94
2022-10-25T18:37:11.124Z,13.90
2022-10-25T18:39:41.276Z,13.88
2022-10-25T18:42:11.228Z,13.82
2022-10-25T18:44:42.000Z,13.81
2022-10-25T18:47:12.281Z,13.79
2022-10-25T18:49:41.094Z,13.74
2022-10-25T18:52:11.468Z,13.71
2022-10-25T18:54:41.122Z,13.69
2022-10-25T18:57:12.512Z,13.68
2022-10-25T18:59:41.254Z,13.66
2022-10-25T19:02:11.358Z,13.68
2022-10-25T19:04:41.249Z,13.69
2022-10-25T19:07:11.097Z,13.68
2022-10-25T19:09:41.125Z,13.69
2022-10-25T19:14:41.612Z,13.68
2022-10-25T19:22:11.416Z,13.64
2022-10-25T19:24:41.250Z,13.62
2022-10-25T19:27:11.341Z,13.60
2022-10-25T19:29:41.373Z,13.59
2022-10-25T19:32:11.118Z,13.58
2022-10-25T19:34:41.430Z,13.56
2022-10-25T19:37:11.176Z,13.55
2022-10-25T19:39:43.719Z,13.51
2022-10-25T19:44:41.266Z,13.49
2022-10-25T19:54:41.446Z,13.48
2022-10-25T19:57:11.317Z,13.50
2022-10-25T19:59:41.168Z,13.49
2022-10-25T20:02:11.502Z,13.50
2022-10-25T20:04:41.130Z,13.49
2022-10-25T20:07:11.364Z,13.48
2022-10-25T20:09:41.336Z,13.46
2022-10-25T20:12:11.251Z,13.43
2022-10-25T20:17:12.418Z,13.45
2022-10-25T20:19:41.259Z,13.47
2022-10-25T20:22:11.128Z,13.49
2022-10-25T20:24:41.195Z,13.50
2022-10-25T20:27:11.219Z,13.48
2022-10-25T20:37:11.509Z,13.44
2022-10-25T20:42:11.160Z,13.46
2022-10-25T20:44:41.159Z,13.45
2022-10-25T20:47:11.174Z,13.43
2022-10-25T20:49:41.507Z,13.41
2022-10-25T20:52:11.166Z,13.38
2022-10-25T20:54:41.183Z,13.34
2022-10-25T20:59:41.164Z,13.32
2022-10-25T21:02:11.582Z,13.30
2022-10-25T21:04:53.036Z,13.27
2022-10-25T21:07:11.169Z,13.26
2022-10-25T21:09:44.653Z,13.21
2022-10-25T21:14:41.545Z,13.17
2022-10-25T21:17:11.157Z,13.16
2022-10-25T21:19:41.164Z,13.14
2022-10-25T21:22:11.189Z,13.12
2022-10-25T21:24:41.218Z,13.09
2022-10-25T21:27:11.483Z,13.06
2022-10-25T21:29:41.315Z,13.04
2022-10-25T21:32:11.362Z,13.01
2022-10-25T21:34:41.321Z,12.98
2022-10-25T21:37:11.218Z,12.96
2022-10-25T21:39:42.531Z,12.94
2022-10-25T21:42:11.192Z,12.92
2022-10-25T21:44:41.300Z,12.88
2022-10-25T21:47:11.416Z,12.84
2022-10-25T21:49:41.170Z,12.80
2022-10-25T21:52:11.468Z,12.74
2022-10-25T21:54:41.308Z,12.71
2022-10-25T21:59:41.165Z,12.68
2022-10-25T22:02:11.547Z,12.65
2022-10-25T22:04:42.781Z,12.60
2022-10-25T22:07:11.166Z,12.55
2022-10-25T22:09:41.269Z,12.51
2022-10-25T22:12:11.319Z,12.48
2022-10-25T22:14:41.169Z,12.46
2022-10-25T22:17:11.404Z,12.42
2022-10-25T22:19:41.197Z,12.37
2022-10-25T22:22:11.183Z,12.34
2022-10-25T22:24:41.300Z,12.31
2022-10-25T22:27:11.184Z,12.28
2022-10-25T22:29:41.565Z,12.24
2022-10-25T22:32:11.193Z,12.21
2022-10-25T22:34:41.312Z,12.18
2022-10-25T22:37:11.242Z,12.15
2022-10-25T22:39:41.337Z,12.10
2022-10-25T22:42:12.825Z,12.07
2022-10-25T22:44:41.202Z,12.03
2022-10-25T22:47:11.226Z,12.00
2022-10-25T22:49:41.406Z,11.95
2022-10-25T22:52:12.745Z,11.92
2022-10-25T22:54:41.443Z,11.89
2022-10-25T22:57:11.349Z,11.84
2022-10-25T22:59:41.260Z,11.82
2022-10-25T23:02:11.196Z,11.81
2022-10-25T23:04:41.710Z,11.78
2022-10-25T23:07:11.373Z,11.76
2022-10-25T23:09:42.916Z,11.73
2022-10-25T23:12:11.190Z,11.70
2022-10-25T23:14:41.213Z,11.71
2022-10-25T23:17:11.402Z,11.70
2022-10-25T23:19:41.512Z,11.69
2022-10-25T23:24:41.242Z,11.67
2022-10-25T23:27:11.209Z,11.66
2022-10-25T23:29:41.426Z,11.63
2022-10-25T23:32:11.376Z,11.62
2022-10-25T23:37:11.552Z,11.60
2022-10-25T23:39:41.201Z,11.57
2022-10-25T23:49:41.330Z,11.55
2022-10-25T23:52:11.233Z,11.56
2022-10-25T23:54:41.231Z,11.55
2022-10-25T23:57:11.243Z,11.54
2022-10-25T23:59:41.314Z,11.51
